createdAt,value
2023-12-16T00:01:09.284Z,2.50
2023-12-16T00:03:37.366Z,2.54
2023-12-16T00:06:05.927Z,2.67
2023-12-16T00:08:33.956Z,2.53
2023-12-16T00:11:03.150Z,2.58
2023-12-16T00:13:31.555Z,2.58
2023-12-16T00:15:59.667Z,2.70
2023-12-16T00:18:27.926Z,2.62
2023-12-16T00:20:55.980Z,2.67
2023-12-16T00:23:24.271Z,2.80
2023-12-16T00:25:52.266Z,2.84
2023-12-16T00:28:20.506Z,2.66
2023-12-16T00:30:48.753Z,2.61
2023-12-16T00:33:17.010Z,2.75
2023-12-16T00:35:45.036Z,2.60
2023-12-16T00:38:13.250Z,2.59
2023-12-16T00:40:41.248Z,2.24
2023-12-16T00:43:09.763Z,2.47
2023-12-16T00:45:37.872Z,2.55
2023-12-16T00:48:06.336Z,2.39
2023-12-16T00:50:34.849Z,2.54
2023-12-16T00:53:03.224Z,2.65
2023-12-16T00:55:31.436Z,2.54
2023-12-16T00:57:59.604Z,2.61
2023-12-16T01:00:28.052Z,2.56
2023-12-16T01:02:56.249Z,2.71
2023-12-16T01:05:24.357Z,2.68
2023-12-16T01:07:54.025Z,2.65
2023-12-16T01:10:22.375Z,2.71
2023-12-16T01:12:50.609Z,2.77
2023-12-16T01:15:18.736Z,2.80
2023-12-16T01:17:46.864Z,2.89
2023-12-16T01:20:15.420Z,2.62
2023-12-16T01:22:43.478Z,2.35
2023-12-16T01:25:11.591Z,2.58
2023-12-16T01:27:39.981Z,2.62
2023-12-16T01:30:08.757Z,2.70
2023-12-16T01:32:36.980Z,2.73
2023-12-16T01:35:05.534Z,2.71
2023-12-16T01:37:33.701Z,2.61
2023-12-16T01:40:01.847Z,2.65
2023-12-16T01:42:30.051Z,2.57
2023-12-16T01:44:58.852Z,2.53
2023-12-16T01:47:28.377Z,2.47
2023-12-16T01:49:56.595Z,2.49
2023-12-16T01:52:25.362Z,2.51
2023-12-16T01:54:53.767Z,2.54
2023-12-16T01:57:22.135Z,2.38
2023-12-16T01:59:50.609Z,2.43
2023-12-16T02:02:20.240Z,2.45
2023-12-16T02:04:49.467Z,2.34
2023-12-16T02:07:17.429Z,2.03
2023-12-16T02:09:45.543Z,2.22
2023-12-16T02:12:13.604Z,2.16
2023-12-16T02:14:41.746Z,2.28
2023-12-16T02:17:09.745Z,2.28
2023-12-16T02:19:38.320Z,2.33
2023-12-16T02:22:06.499Z,2.20
2023-12-16T02:24:38.222Z,2.21
2023-12-16T02:27:06.276Z,1.94
2023-12-16T02:29:34.431Z,1.82
2023-12-16T02:32:03.124Z,1.96
2023-12-16T02:34:31.604Z,1.89
2023-12-16T02:36:59.792Z,2.08
2023-12-16T02:39:27.990Z,2.20
2023-12-16T02:41:56.032Z,2.06
2023-12-16T02:44:24.105Z,2.14
2023-12-16T02:46:52.582Z,2.24
2023-12-16T02:49:20.624Z,2.05
2023-12-16T02:51:49.008Z,2.17
2023-12-16T02:54:17.042Z,2.12
2023-12-16T02:56:45.072Z,2.08
2023-12-16T02:59:13.429Z,2.01
2023-12-16T03:03:56.105Z,1.96
2023-12-16T03:06:24.250Z,1.51
2023-12-16T03:08:52.332Z,1.64
2023-12-16T03:11:20.546Z,1.70
2023-12-16T03:13:48.659Z,1.61
2023-12-16T03:16:16.849Z,1.77
2023-12-16T03:18:47.254Z,1.59
2023-12-16T03:21:15.643Z,1.75
2023-12-16T03:23:43.710Z,1.77
2023-12-16T03:26:11.826Z,1.81
2023-12-16T03:28:42.045Z,1.72
2023-12-16T03:31:12.216Z,1.94
2023-12-16T03:33:40.448Z,1.68
2023-12-16T03:36:11.673Z,1.76
2023-12-16T03:38:42.932Z,1.86
2023-12-16T03:41:11.148Z,2.02
2023-12-16T03:43:39.396Z,2.16
2023-12-16T03:46:11.789Z,2.21
2023-12-16T03:48:39.983Z,2.23
2023-12-16T03:51:08.010Z,1.98
2023-12-16T03:53:36.015Z,1.92
2023-12-16T03:56:04.962Z,2.04
2023-12-16T03:58:32.969Z,1.97
2023-12-16T04:01:01.097Z,1.82
2023-12-16T04:03:29.244Z,1.87
2023-12-16T04:05:57.516Z,1.92
2023-12-16T04:08:25.606Z,1.68
2023-12-16T04:10:53.737Z,1.58
2023-12-16T04:13:22.652Z,1.71
2023-12-16T04:15:54.224Z,1.83
2023-12-16T04:18:22.978Z,1.86
2023-12-16T04:20:51.271Z,1.96
2023-12-16T04:23:19.293Z,1.96
2023-12-16T04:25:47.437Z,2.06
2023-12-16T04:28:15.578Z,2.19
2023-12-16T04:30:43.728Z,2.12
2023-12-16T04:33:11.827Z,2.13
2023-12-16T04:35:39.916Z,2.00
2023-12-16T04:38:09.862Z,2.11
2023-12-16T04:40:38.226Z,2.11
2023-12-16T04:43:06.403Z,2.09
2023-12-16T04:45:35.402Z,1.93
2023-12-16T04:48:04.078Z,1.83
2023-12-16T04:50:32.280Z,1.86
2023-12-16T04:53:00.438Z,1.92
2023-12-16T04:55:28.468Z,1.87
2023-12-16T04:57:56.698Z,1.94
2023-12-16T05:00:24.805Z,1.97
2023-12-16T05:02:52.889Z,1.92
2023-12-16T05:05:21.035Z,1.91
2023-12-16T05:07:49.021Z,1.77
2023-12-16T05:10:17.208Z,1.51
2023-12-16T05:12:45.306Z,1.55
2023-12-16T05:15:13.847Z,1.32
2023-12-16T05:17:42.383Z,1.38
2023-12-16T05:20:10.901Z,1.24
2023-12-16T05:22:39.021Z,1.33
2023-12-16T05:25:07.711Z,1.56
2023-12-16T05:27:36.489Z,1.66
2023-12-16T05:30:07.691Z,1.51
2023-12-16T05:32:37.463Z,1.54
2023-12-16T05:35:06.265Z,1.68
2023-12-16T05:37:34.363Z,1.79
2023-12-16T05:40:02.675Z,1.71
2023-12-16T05:42:31.285Z,1.85
2023-12-16T05:44:59.350Z,1.91
2023-12-16T05:47:27.403Z,1.65
2023-12-16T05:49:55.639Z,1.70
2023-12-16T05:52:23.707Z,1.74
2023-12-16T05:54:51.914Z,1.87
2023-12-16T05:57:20.206Z,1.86
2023-12-16T05:59:48.366Z,1.91
2023-12-16T06:02:16.389Z,1.75
2023-12-16T06:04:44.476Z,1.81
2023-12-16T06:07:12.655Z,1.73
2023-12-16T06:09:40.729Z,1.73
2023-12-16T06:12:08.840Z,1.82
2023-12-16T06:14:36.958Z,1.81
2023-12-16T06:17:05.408Z,1.78
2023-12-16T06:19:33.868Z,1.69
2023-12-16T06:22:02.541Z,1.61
2023-12-16T06:24:30.743Z,1.72
2023-12-16T06:26:59.199Z,1.83
2023-12-16T06:29:27.513Z,1.90
2023-12-16T06:31:55.584Z,1.89
2023-12-16T06:34:23.772Z,1.93
2023-12-16T06:36:51.963Z,2.02
2023-12-16T06:39:20.048Z,2.05
2023-12-16T06:41:48.241Z,2.02
2023-12-16T06:44:34.916Z,1.87
2023-12-16T06:47:03.114Z,1.80
2023-12-16T06:49:31.189Z,1.85
2023-12-16T06:51:59.331Z,1.93
2023-12-16T06:54:27.526Z,1.92
2023-12-16T06:56:55.726Z,1.91
2023-12-16T06:59:23.760Z,1.95
2023-12-16T07:01:52.031Z,2.02
2023-12-16T07:04:20.410Z,2.10
2023-12-16T07:06:48.602Z,2.14
2023-12-16T07:09:16.930Z,2.10
2023-12-16T07:11:44.930Z,2.10
2023-12-16T13:23:46.016Z,1.96
2023-12-16T13:26:16.002Z,2.17
2023-12-16T13:28:45.617Z,2.32
2023-12-16T13:43:08.724Z,2.27
2023-12-16T13:45:37.632Z,2.26
2023-12-16T13:48:06.355Z,2.40
2023-12-16T13:50:35.156Z,2.51
2023-12-16T13:53:04.025Z,2.66
2023-12-16T13:55:32.583Z,2.61
2023-12-16T13:58:01.523Z,2.67
2023-12-16T14:00:30.039Z,2.77
2023-12-16T14:02:58.766Z,2.84
2023-12-16T14:05:27.529Z,2.96
2023-12-16T14:07:56.348Z,3.03
2023-12-16T14:10:25.109Z,3.04
2023-12-16T14:12:53.888Z,3.13
2023-12-16T14:15:22.625Z,3.22
2023-12-16T14:17:51.055Z,3.23
2023-12-16T14:20:19.731Z,3.23
2023-12-16T14:22:51.073Z,3.27
2023-12-16T14:25:21.752Z,3.09
2023-12-16T14:27:51.194Z,3.12
2023-12-16T14:30:20.073Z,2.92
2023-12-16T14:32:49.127Z,2.83
2023-12-16T14:35:17.787Z,2.81
2023-12-16T14:37:46.721Z,2.60
2023-12-16T14:40:15.507Z,2.57
2023-12-16T14:42:44.270Z,2.62
2023-12-16T14:45:15.478Z,2.51
2023-12-16T14:47:44.953Z,2.42
2023-12-16T14:50:13.664Z,2.42
2023-12-16T14:52:42.541Z,2.50
2023-12-16T14:55:11.546Z,2.55
2023-12-16T14:57:41.295Z,2.63
2023-12-16T15:00:10.533Z,2.57
2023-12-16T15:02:40.129Z,2.43
2023-12-16T15:05:09.644Z,2.41
2023-12-16T15:07:38.980Z,2.34
2023-12-16T15:10:08.745Z,2.40
2023-12-16T15:12:37.376Z,2.40
2023-12-16T15:15:07.142Z,2.45
2023-12-16T15:17:36.311Z,2.29
2023-12-16T15:20:05.666Z,2.18
2023-12-16T15:22:34.384Z,1.82
2023-12-16T15:25:04.909Z,1.80
2023-12-16T15:27:33.238Z,1.95
2023-12-16T15:30:01.817Z,2.07
2023-12-16T15:32:29.858Z,1.90
2023-12-16T15:34:58.106Z,1.94
2023-12-16T15:37:26.836Z,2.20
2023-12-16T15:39:56.152Z,2.10
2023-12-16T15:42:24.243Z,2.00
2023-12-16T15:44:52.436Z,1.70
2023-12-16T15:47:24.660Z,1.71
2023-12-16T15:51:54.768Z,1.90
2023-12-16T15:54:24.045Z,1.98
2023-12-16T15:56:52.041Z,1.86
2023-12-16T15:59:20.912Z,1.90
2023-12-16T16:01:49.805Z,2.04
2023-12-16T16:04:18.055Z,1.80
2023-12-16T16:06:46.135Z,1.97
2023-12-16T16:09:14.370Z,2.04
2023-12-16T16:11:42.648Z,1.92
2023-12-16T16:14:10.755Z,2.03
2023-12-16T16:16:38.874Z,2.02
2023-12-16T16:19:07.633Z,1.86
2023-12-16T16:21:35.901Z,2.03
2023-12-16T16:24:23.040Z,2.10
2023-12-16T16:26:51.957Z,2.14
2023-12-16T16:29:21.515Z,1.94
2023-12-16T16:31:50.348Z,1.91
2023-12-16T16:34:19.160Z,2.04
2023-12-16T16:36:48.156Z,2.10
2023-12-16T16:39:17.127Z,2.14
2023-12-16T16:45:32.906Z,1.95
2023-12-16T16:48:04.502Z,1.98
2023-12-16T16:50:33.463Z,2.00
2023-12-16T16:53:02.221Z,1.84
2023-12-16T16:55:32.704Z,1.94
2023-12-16T16:58:01.648Z,2.04
2023-12-16T17:00:30.962Z,2.04
2023-12-16T17:02:59.511Z,2.12
2023-12-16T17:05:28.486Z,2.12
2023-12-16T17:07:58.744Z,2.10
2023-12-16T17:10:27.874Z,2.16
2023-12-16T17:12:57.484Z,2.17
2023-12-16T17:15:30.480Z,2.20
2023-12-16T17:17:59.086Z,2.18
2023-12-16T17:20:27.598Z,2.21
2023-12-16T17:22:55.969Z,2.25
2023-12-16T17:27:56.828Z,2.17
2023-12-16T17:30:25.867Z,2.19
2023-12-16T17:32:54.731Z,2.22
2023-12-16T17:42:03.075Z,1.76
2023-12-16T17:52:43.602Z,1.32
2023-12-16T18:02:07.266Z,1.13
2023-12-16T18:04:37.135Z,1.27
2023-12-16T18:07:06.188Z,1.38
2023-12-16T18:09:34.960Z,1.42
2023-12-16T18:12:03.994Z,1.57
2023-12-16T18:14:37.758Z,1.63
2023-12-16T18:17:06.581Z,1.69
2023-12-16T18:19:35.526Z,1.75
2023-12-16T18:22:04.707Z,1.79
2023-12-16T18:24:33.455Z,1.92
2023-12-16T18:27:02.145Z,2.00
2023-12-16T18:29:31.229Z,2.04
2023-12-16T18:31:59.989Z,2.06
2023-12-16T18:34:28.681Z,2.13
2023-12-16T18:36:57.928Z,2.14
2023-12-16T18:39:26.695Z,2.19
2023-12-16T18:41:56.627Z,2.14
2023-12-16T18:44:25.680Z,2.14
2023-12-16T18:46:54.299Z,2.04
2023-12-16T18:49:23.224Z,2.14
2023-12-16T18:51:51.969Z,2.20
2023-12-16T18:54:20.877Z,2.06
2023-12-16T18:56:49.620Z,2.07
2023-12-16T18:59:18.458Z,2.17
2023-12-16T19:01:47.191Z,2.24
2023-12-16T19:04:15.857Z,2.27
2023-12-16T19:06:45.353Z,2.27
2023-12-16T19:09:13.955Z,2.31
2023-12-16T19:11:42.906Z,2.30
2023-12-16T19:14:12.093Z,2.33
2023-12-16T19:16:40.899Z,2.32
2023-12-16T19:19:09.837Z,2.33
2023-12-16T19:21:38.703Z,2.28
2023-12-16T19:24:07.903Z,2.22
2023-12-16T19:26:36.478Z,2.24
2023-12-16T19:29:05.384Z,2.31
2023-12-16T19:31:34.204Z,2.30
2023-12-16T19:34:03.106Z,2.30
2023-12-16T19:36:32.033Z,2.32
2023-12-16T19:39:00.889Z,2.29
2023-12-16T19:41:29.677Z,2.26
2023-12-16T19:43:58.608Z,2.23
2023-12-16T19:46:27.458Z,2.24
2023-12-16T19:49:00.137Z,2.27
2023-12-16T19:51:29.437Z,2.26
2023-12-16T19:53:58.075Z,2.30
2023-12-16T19:56:26.840Z,2.28
2023-12-16T19:58:55.983Z,2.29
2023-12-16T20:01:25.086Z,2.24
2023-12-16T20:03:54.086Z,2.22
2023-12-16T20:06:23.474Z,2.21
2023-12-16T20:08:52.110Z,1.99
2023-12-16T20:11:21.053Z,2.00
2023-12-16T20:13:52.203Z,2.04
2023-12-16T20:16:21.372Z,1.87
2023-12-16T20:18:50.210Z,2.00
2023-12-16T20:21:19.352Z,1.71
2023-12-16T20:23:47.986Z,1.34
2023-12-16T20:26:19.777Z,1.60
2023-12-16T20:28:49.010Z,1.69
2023-12-16T20:31:17.848Z,1.79
2023-12-16T20:33:47.343Z,1.81
2023-12-16T20:36:22.216Z,1.92
2023-12-16T20:39:09.396Z,1.97
2023-12-16T20:41:38.506Z,1.89
2023-12-16T20:44:07.139Z,1.76
2023-12-16T20:46:35.987Z,1.14
2023-12-16T20:49:04.940Z,1.43
2023-12-16T20:51:33.661Z,1.54
2023-12-16T20:54:02.540Z,1.59
2023-12-16T20:56:31.224Z,1.68
2023-12-16T20:59:04.148Z,1.71
2023-12-16T21:01:33.975Z,1.87
2023-12-16T21:04:02.697Z,1.96
2023-12-16T21:06:31.475Z,1.95
2023-12-16T21:09:00.317Z,1.95
2023-12-16T21:11:29.081Z,1.93
2023-12-16T21:13:57.790Z,1.94
2023-12-16T21:16:26.716Z,1.98
2023-12-16T21:18:55.814Z,2.07
2023-12-16T21:21:25.020Z,2.12
2023-12-16T21:23:53.618Z,2.14
2023-12-16T21:26:22.583Z,2.17
2023-12-16T21:28:51.302Z,2.18
2023-12-16T21:31:20.077Z,2.20
2023-12-16T21:33:48.783Z,2.09
2023-12-16T21:36:17.919Z,2.06
2023-12-16T21:38:48.806Z,2.08
2023-12-16T21:41:20.529Z,1.98
2023-12-16T21:43:49.359Z,1.98
2023-12-16T21:46:17.967Z,2.04
2023-12-16T21:48:47.120Z,2.04
2023-12-16T21:51:16.078Z,2.05
2023-12-16T21:53:45.456Z,2.00
2023-12-16T21:56:14.178Z,1.93
2023-12-16T21:58:43.118Z,1.89
2023-12-16T22:01:17.489Z,1.83
2023-12-16T22:03:46.914Z,1.86
2023-12-16T22:06:15.505Z,1.78
2023-12-16T22:08:53.022Z,1.76
2023-12-16T22:11:25.020Z,1.66
2023-12-16T22:13:53.666Z,1.65
2023-12-16T22:16:22.753Z,1.61
2023-12-16T22:18:51.705Z,1.57
2023-12-16T22:21:20.585Z,1.51
2023-12-16T22:23:49.469Z,1.40
2023-12-16T22:26:18.943Z,1.44
2023-12-16T22:28:48.021Z,1.35
2023-12-16T22:31:16.993Z,1.34
2023-12-16T22:33:46.025Z,1.30
2023-12-16T22:36:15.069Z,1.29
2023-12-16T22:38:43.900Z,1.24
2023-12-16T22:41:13.454Z,1.15
2023-12-16T22:43:42.277Z,1.20
2023-12-16T22:46:12.214Z,1.04
2023-12-16T22:48:41.168Z,1.12
2023-12-16T22:51:10.607Z,1.07
2023-12-16T22:53:39.290Z,1.07
2023-12-16T22:56:08.651Z,1.01
2023-12-16T22:58:40.661Z,1.00
2023-12-16T23:01:10.064Z,0.95
2023-12-16T23:03:39.438Z,0.94
2023-12-16T23:06:09.874Z,0.93
2023-12-16T23:08:39.781Z,0.86
2023-12-16T23:11:09.887Z,0.77
2023-12-16T23:13:38.621Z,0.63
2023-12-16T23:16:08.747Z,0.55
2023-12-16T23:18:46.610Z,0.51
2023-12-16T23:21:15.277Z,0.55
2023-12-16T23:23:43.976Z,0.58
2023-12-16T23:26:12.895Z,0.52
2023-12-16T23:28:41.688Z,0.47
2023-12-16T23:31:15.095Z,0.41
2023-12-16T23:33:45.362Z,0.29
2023-12-16T23:36:14.358Z,0.16
2023-12-16T23:38:43.128Z,0.13
2023-12-16T23:41:19.586Z,-0.16
2023-12-16T23:43:52.311Z,-0.35
2023-12-16T23:46:22.129Z,-0.24
2023-12-16T23:48:51.339Z,-0.40
2023-12-16T23:51:20.348Z,-0.56
2023-12-16T23:53:49.357Z,-0.56
2023-12-16T23:56:18.497Z,-0.50
2023-12-16T23:58:47.133Z,-0.56
